Terminal Aerodrome Forecast
Issued by NWS Bismarck, ND

Home | Current Version | Previous Version | Graphics & Text | Print | Product List | Glossary On
Versions: 1 2 3 4 5 6 7 8 9 10 11 12 13
699
FTUS43 KBIS 210528
TAFISN
TAF
KISN 210528Z 2106/2206 VRB04KT P6SM SCT250
     FM211700 32009KT P6SM SCT250
     FM212000 33013KT P6SM BKN200
     FM212300 33014KT P6SM VCTS BKN110CB
     FM220400 33007KT P6SM BKN120=

USA.gov is the U.S. government's official web portal to all federal, state and local government web resources and services.